createdAt,value
2023-03-17T00:00:53.326Z,25.13
2023-03-17T00:03:43.174Z,25.04
2023-03-17T00:06:33.829Z,25.06
2023-03-17T00:09:23.009Z,25.05
2023-03-17T00:12:12.955Z,25.05
2023-03-17T00:15:02.950Z,25.04
2023-03-17T00:17:52.638Z,25.08
2023-03-17T00:20:41.313Z,25.07
2023-03-17T00:23:30.016Z,25.05
2023-03-17T00:26:18.800Z,25.01
2023-03-17T00:29:08.441Z,24.99
2023-03-17T00:31:59.018Z,25.01
2023-03-17T00:34:47.945Z,25.00
2023-03-17T00:37:36.701Z,24.98
2023-03-17T00:40:29.468Z,25.04
2023-03-17T00:43:18.735Z,25.09
2023-03-17T00:46:13.157Z,25.08
2023-03-17T00:49:03.404Z,25.06
2023-03-17T00:51:52.682Z,25.07
2023-03-17T00:54:41.354Z,25.00
2023-03-17T00:57:29.986Z,25.01
2023-03-17T01:00:24.562Z,24.94
2023-03-17T01:03:14.599Z,24.93
2023-03-17T01:06:06.548Z,24.97
2023-03-17T01:08:56.921Z,25.03
2023-03-17T01:11:46.122Z,25.00
2023-03-17T01:14:37.821Z,24.90
2023-03-17T01:17:26.732Z,24.89
2023-03-17T01:20:21.639Z,24.93
2023-03-17T01:23:12.396Z,24.95
2023-03-17T01:26:06.650Z,24.90
2023-03-17T01:28:55.300Z,24.93
2023-03-17T01:31:44.257Z,24.94
2023-03-17T01:34:33.793Z,24.93
2023-03-17T01:37:22.706Z,24.90
2023-03-17T01:40:18.380Z,24.90
2023-03-17T01:43:21.483Z,24.94
2023-03-17T01:46:21.914Z,24.98
2023-03-17T01:49:16.075Z,25.05
2023-03-17T01:52:07.591Z,24.98
2023-03-17T01:54:59.102Z,24.96
2023-03-17T01:57:53.362Z,24.98
2023-03-17T02:00:42.101Z,25.02
2023-03-17T02:03:30.858Z,25.00
2023-03-17T02:06:20.141Z,24.95
2023-03-17T02:09:10.792Z,24.97
2023-03-17T02:12:00.784Z,24.97
2023-03-17T02:14:53.592Z,24.94
2023-03-17T02:17:42.443Z,24.99
2023-03-17T02:21:13.862Z,24.99
2023-03-17T02:24:07.609Z,24.96
2023-03-17T02:26:57.639Z,25.05
2023-03-17T02:29:47.268Z,24.99
2023-03-17T02:32:37.461Z,25.05
2023-03-17T02:35:27.157Z,25.05
2023-03-17T02:38:15.842Z,25.02
2023-03-17T02:41:06.429Z,25.00
2023-03-17T02:43:54.999Z,24.94
2023-03-17T02:46:43.624Z,24.97
2023-03-17T02:49:32.701Z,24.97
2023-03-17T02:52:21.319Z,24.99
2023-03-17T02:55:11.380Z,25.04
2023-03-17T02:58:03.054Z,25.02
2023-03-17T03:00:51.972Z,24.87
2023-03-17T03:03:40.776Z,24.95
2023-03-17T03:06:29.383Z,24.95
2023-03-17T03:09:18.839Z,24.88
2023-03-17T03:12:10.058Z,24.90
2023-03-17T03:15:00.918Z,24.86
2023-03-17T03:17:49.577Z,24.87
2023-03-17T03:20:38.401Z,24.94
2023-03-17T03:23:27.850Z,24.95
2023-03-17T03:26:16.674Z,24.94
2023-03-17T03:29:05.851Z,24.94
2023-03-17T03:31:56.028Z,24.91
2023-03-17T03:34:44.624Z,24.90
2023-03-17T03:37:34.134Z,24.85
2023-03-17T03:40:22.815Z,24.95
2023-03-17T03:43:22.291Z,24.89
2023-03-17T03:46:12.502Z,24.80
2023-03-17T03:49:02.514Z,24.89
2023-03-17T03:51:53.724Z,24.87
2023-03-17T03:54:42.334Z,24.88
2023-03-17T03:57:30.973Z,24.86
2023-03-17T04:00:20.423Z,24.90
2023-03-17T04:03:09.210Z,24.92
2023-03-17T04:05:59.243Z,24.87
2023-03-17T04:08:48.319Z,24.86
2023-03-17T04:11:38.187Z,24.86
2023-03-17T04:14:26.873Z,24.77
2023-03-17T04:17:16.004Z,24.88
2023-03-17T04:20:05.180Z,24.87
2023-03-17T04:22:55.232Z,24.91
2023-03-17T04:25:43.847Z,24.93
2023-03-17T04:28:32.564Z,24.96
2023-03-17T04:31:21.187Z,24.87
2023-03-17T04:34:14.473Z,24.88
2023-03-17T04:37:03.067Z,24.86
2023-03-17T04:39:53.337Z,24.93
2023-03-17T04:42:42.488Z,24.91
2023-03-17T04:45:31.161Z,24.85
2023-03-17T04:48:19.822Z,24.85
2023-03-17T04:51:11.582Z,24.80
2023-03-17T04:54:01.711Z,24.80
2023-03-17T04:56:52.132Z,24.78
2023-03-17T04:59:40.842Z,24.84
2023-03-17T05:02:30.057Z,24.95
2023-03-17T05:05:18.861Z,24.98
2023-03-17T05:08:07.909Z,25.02
2023-03-17T05:10:57.374Z,25.06
2023-03-17T05:13:48.745Z,25.10
2023-03-17T05:16:37.573Z,25.07
2023-03-17T05:19:26.865Z,25.10
2023-03-17T05:22:19.731Z,25.11
2023-03-17T05:25:11.516Z,25.15
2023-03-17T05:28:01.085Z,25.13
2023-03-17T05:30:51.996Z,25.10
2023-03-17T05:33:40.694Z,25.14
2023-03-17T05:36:29.405Z,25.14
2023-03-17T05:39:18.629Z,25.25
2023-03-17T05:42:09.967Z,25.24
2023-03-17T05:44:58.613Z,25.25
2023-03-17T05:47:48.908Z,25.33
2023-03-17T05:50:37.644Z,25.16
2023-03-17T05:53:26.626Z,25.14
2023-03-17T05:56:15.331Z,25.10
2023-03-17T05:59:04.765Z,25.18
2023-03-17T06:01:54.328Z,25.15
2023-03-17T06:04:44.539Z,25.09
2023-03-17T06:07:44.551Z,24.99
2023-03-17T06:10:38.949Z,24.91
2023-03-17T06:13:27.790Z,24.90
2023-03-17T06:16:18.804Z,24.88
2023-03-17T06:19:07.418Z,25.00
2023-03-17T06:21:59.759Z,25.06
2023-03-17T06:24:48.669Z,25.06
2023-03-17T06:27:37.446Z,25.05
2023-03-17T06:30:27.102Z,25.08
2023-03-17T06:33:17.942Z,25.15
2023-03-17T06:36:08.153Z,25.08
2023-03-17T06:38:58.184Z,25.18
2023-03-17T06:41:47.181Z,25.12
2023-03-17T06:44:36.404Z,25.07
2023-03-17T06:47:26.087Z,24.99
2023-03-17T06:50:14.814Z,24.95
2023-03-17T06:53:05.417Z,25.09
2023-03-17T06:55:56.260Z,25.00
2023-03-17T06:58:45.580Z,25.04
2023-03-17T07:01:34.337Z,25.01
2023-03-17T07:04:23.650Z,25.00
2023-03-17T07:07:12.458Z,24.96
2023-03-17T07:10:01.138Z,24.99
2023-03-17T07:12:52.131Z,24.98
2023-03-17T07:15:40.929Z,25.05
2023-03-17T07:18:32.452Z,25.02
2023-03-17T07:21:21.249Z,25.04
2023-03-17T07:24:12.225Z,25.16
2023-03-17T07:27:00.926Z,25.16
2023-03-17T07:29:51.278Z,25.16
2023-03-17T07:32:43.809Z,25.25
2023-03-17T07:35:33.966Z,25.19
2023-03-17T07:38:23.301Z,25.21
2023-03-17T07:41:11.934Z,25.18
2023-03-17T07:44:01.814Z,25.20
2023-03-17T07:46:52.804Z,25.21
2023-03-17T07:49:42.656Z,25.23
2023-03-17T07:52:31.539Z,25.16
2023-03-17T07:55:20.284Z,25.21
2023-03-17T07:58:09.203Z,25.26
2023-03-17T08:00:58.372Z,25.13
2023-03-17T08:03:48.627Z,25.13
2023-03-17T08:06:37.856Z,25.18
2023-03-17T08:09:27.561Z,25.17
2023-03-17T08:12:16.920Z,25.15
2023-03-17T08:15:06.731Z,25.07
2023-03-17T08:17:55.395Z,25.04
2023-03-17T08:20:46.077Z,25.05
2023-03-17T08:23:34.959Z,25.12
2023-03-17T08:26:24.699Z,25.18
2023-03-17T08:29:15.518Z,25.26
2023-03-17T08:32:04.481Z,25.22
2023-03-17T08:34:55.355Z,25.24
2023-03-17T08:37:45.598Z,25.27
2023-03-17T08:40:34.555Z,25.35
2023-03-17T08:43:23.987Z,25.40
2023-03-17T08:46:17.782Z,25.44
2023-03-17T08:49:06.640Z,25.58
2023-03-17T08:51:56.129Z,25.62
2023-03-17T08:54:47.307Z,25.72
2023-03-17T08:57:35.926Z,25.74
2023-03-17T09:00:26.732Z,25.71
2023-03-17T09:03:15.520Z,25.68
2023-03-17T09:06:08.835Z,25.75
2023-03-17T09:08:58.436Z,25.86
2023-03-17T09:11:48.555Z,25.79
2023-03-17T09:14:43.914Z,25.71
2023-03-17T09:17:33.342Z,25.67
2023-03-17T09:20:22.491Z,25.82
2023-03-17T09:23:12.168Z,25.84
2023-03-17T09:26:01.243Z,25.83
2023-03-17T09:28:51.499Z,25.83
2023-03-17T09:31:41.521Z,25.83
2023-03-17T09:34:33.362Z,25.77
2023-03-17T09:37:22.646Z,25.77
2023-03-17T09:40:15.860Z,25.76
2023-03-17T09:43:12.037Z,25.79
2023-03-17T09:46:10.609Z,25.69
2023-03-17T09:49:01.541Z,25.76
2023-03-17T09:51:51.661Z,25.80
2023-03-17T09:54:40.820Z,25.76
2023-03-17T09:57:33.577Z,25.76
2023-03-17T10:00:26.757Z,25.88
2023-03-17T10:03:17.593Z,25.86
2023-03-17T10:06:23.113Z,25.89
2023-03-17T10:09:25.431Z,25.80
2023-03-17T10:12:22.672Z,25.75
2023-03-17T10:15:18.336Z,25.86
2023-03-17T10:18:13.549Z,25.85
2023-03-17T10:21:06.260Z,25.94
2023-03-17T10:23:56.282Z,25.87
2023-03-17T10:26:48.189Z,25.82
2023-03-17T10:29:37.213Z,25.84
2023-03-17T10:32:26.029Z,25.93
2023-03-17T10:35:16.979Z,25.92
2023-03-17T10:38:17.020Z,25.92
2023-03-17T10:41:09.904Z,25.93
2023-03-17T10:43:59.519Z,25.93
2023-03-17T10:46:55.500Z,25.92
2023-03-17T10:49:46.205Z,25.95
2023-03-17T10:52:40.955Z,25.95
2023-03-17T10:55:34.477Z,25.94
2023-03-17T10:58:26.778Z,25.92
2023-03-17T11:01:20.199Z,25.92
2023-03-17T11:04:26.515Z,25.93
2023-03-17T11:07:19.389Z,25.88
2023-03-17T11:10:19.431Z,25.83
2023-03-17T11:13:10.532Z,25.86
2023-03-17T11:16:10.667Z,25.81
2023-03-17T11:19:02.157Z,25.88
2023-03-17T11:21:57.734Z,25.91
2023-03-17T11:24:53.751Z,25.84
2023-03-17T11:27:47.807Z,25.83
2023-03-17T11:30:38.971Z,25.83
2023-03-17T11:33:36.610Z,25.81
2023-03-17T11:36:38.110Z,25.77
2023-03-17T11:39:28.425Z,25.76
2023-03-17T11:42:19.880Z,25.87
2023-03-17T11:45:19.381Z,25.92
2023-03-17T11:48:17.286Z,25.87
2023-03-17T11:51:09.824Z,25.88
2023-03-17T11:54:10.097Z,25.92
2023-03-17T11:57:01.292Z,25.94
2023-03-17T11:59:54.449Z,25.87
2023-03-17T12:02:46.408Z,25.89
2023-03-17T12:05:37.456Z,25.88
2023-03-17T12:08:33.269Z,25.92
2023-03-17T12:11:24.948Z,25.91
2023-03-17T12:14:24.333Z,25.87
2023-03-17T12:17:18.489Z,25.81
2023-03-17T12:20:16.454Z,25.86
2023-03-17T12:23:12.124Z,25.83
2023-03-17T12:26:05.137Z,25.89
2023-03-17T12:28:58.521Z,25.88
2023-03-17T12:31:50.447Z,25.88
2023-03-17T12:34:46.046Z,25.85
2023-03-17T12:37:34.778Z,25.86
2023-03-17T12:40:29.461Z,25.88
2023-03-17T12:43:38.931Z,25.85
2023-03-17T12:47:03.410Z,25.84
2023-03-17T12:50:12.107Z,25.82
2023-03-17T12:53:15.513Z,25.77
2023-03-17T12:56:12.544Z,25.80
2023-03-17T12:59:04.308Z,25.80
2023-03-17T13:01:58.787Z,25.80
2023-03-17T13:04:58.108Z,25.79
2023-03-17T13:07:51.701Z,25.75
2023-03-17T13:10:42.739Z,25.80
2023-03-17T13:13:45.683Z,25.81
2023-03-17T13:16:35.865Z,25.77
2023-03-17T13:19:29.033Z,25.76
2023-03-17T13:22:36.151Z,25.75
2023-03-17T13:25:34.881Z,25.76
2023-03-17T13:28:28.651Z,25.77
2023-03-17T13:31:34.673Z,25.76
2023-03-17T13:34:23.546Z,25.77
2023-03-17T13:37:22.309Z,25.77
2023-03-17T13:40:18.387Z,25.79
2023-03-17T13:43:16.079Z,25.79
2023-03-17T13:46:36.468Z,25.80
2023-03-17T13:49:29.610Z,25.83
2023-03-17T13:52:20.744Z,25.83
2023-03-17T13:55:38.819Z,25.84
2023-03-17T13:58:34.417Z,25.86
2023-03-17T14:01:25.492Z,25.86
2023-03-17T14:04:25.323Z,25.87
2023-03-17T14:07:20.668Z,25.90
2023-03-17T14:10:16.702Z,25.91
2023-03-17T14:13:14.900Z,26.01
2023-03-17T14:16:07.475Z,25.98
2023-03-17T14:18:59.606Z,25.91
2023-03-17T14:21:50.163Z,25.70
2023-03-17T14:24:38.809Z,25.52
2023-03-17T14:27:28.511Z,25.33
2023-03-17T14:30:20.770Z,25.00
2023-03-17T14:33:18.721Z,24.92
2023-03-17T14:36:14.323Z,24.91
2023-03-17T14:39:04.800Z,24.95
2023-03-17T14:42:03.747Z,25.05
2023-03-17T14:45:03.419Z,25.21
2023-03-17T14:47:52.786Z,25.16
2023-03-17T14:50:51.014Z,25.10
2023-03-17T14:53:43.171Z,25.14
2023-03-17T14:56:36.932Z,25.18
2023-03-17T14:59:29.276Z,25.20
2023-03-17T15:02:23.963Z,25.12
2023-03-17T15:05:26.328Z,25.28
2023-03-17T15:08:47.162Z,25.47
2023-03-17T15:11:42.984Z,25.41
2023-03-17T15:14:33.626Z,25.21
2023-03-17T15:17:25.061Z,25.32
2023-03-17T15:20:16.286Z,25.19
2023-03-17T15:23:06.857Z,25.14
2023-03-17T15:25:56.948Z,25.21
2023-03-17T15:28:48.224Z,25.37
2023-03-17T15:31:36.921Z,25.48
2023-03-17T15:34:25.816Z,25.52
2023-03-17T15:37:19.058Z,25.43
2023-03-17T15:40:09.622Z,25.45
2023-03-17T15:43:01.028Z,25.47
2023-03-17T15:45:55.976Z,25.45
2023-03-17T15:48:44.961Z,25.45
2023-03-17T15:51:33.598Z,25.36
2023-03-17T15:54:23.423Z,25.34
2023-03-17T15:57:15.210Z,25.36
2023-03-17T16:00:04.357Z,25.37
2023-03-17T16:03:01.411Z,25.32
2023-03-17T16:05:50.993Z,25.30
2023-03-17T16:08:39.945Z,25.27
2023-03-17T16:11:32.673Z,25.27
2023-03-17T16:14:21.617Z,25.23
2023-03-17T16:17:20.653Z,25.23
2023-03-17T16:20:21.080Z,25.26
2023-03-17T16:23:16.688Z,25.25
2023-03-17T16:26:15.985Z,25.26
2023-03-17T16:29:07.651Z,25.27
2023-03-17T16:31:56.810Z,25.27
2023-03-17T16:34:45.705Z,25.26
2023-03-17T16:37:35.724Z,25.30
2023-03-17T16:40:26.494Z,25.27
2023-03-17T16:43:25.639Z,25.28
2023-03-17T16:46:16.689Z,25.26
2023-03-17T16:49:06.271Z,25.26
2023-03-17T16:51:54.855Z,25.29
2023-03-17T16:54:44.986Z,25.32
2023-03-17T16:57:34.920Z,25.30
2023-03-17T17:00:26.039Z,25.27
2023-03-17T17:03:17.478Z,25.29
2023-03-17T17:06:07.231Z,25.25
2023-03-17T17:08:56.203Z,25.31
2023-03-17T17:11:49.339Z,25.25
2023-03-17T17:14:38.652Z,25.25
2023-03-17T17:17:28.195Z,25.24
2023-03-17T17:20:18.488Z,25.21
2023-03-17T17:23:08.187Z,25.23
2023-03-17T17:25:56.920Z,25.22
2023-03-17T17:28:47.890Z,25.31
2023-03-17T17:31:36.746Z,25.52
2023-03-17T17:34:25.502Z,25.41
2023-03-17T17:37:16.043Z,25.54
2023-03-17T17:40:05.798Z,25.44
2023-03-17T17:42:55.487Z,25.38
2023-03-17T17:45:48.525Z,25.39
2023-03-17T17:48:37.167Z,25.44
2023-03-17T17:51:26.573Z,25.57
2023-03-17T17:54:15.191Z,25.54
2023-03-17T17:57:04.133Z,25.66
2023-03-17T17:59:53.437Z,25.65
2023-03-17T18:02:43.538Z,25.53
2023-03-17T18:05:32.425Z,25.45
2023-03-17T18:08:21.333Z,25.48
2023-03-17T18:11:10.263Z,25.51
2023-03-17T18:13:59.515Z,25.65
2023-03-17T18:16:48.279Z,25.69
2023-03-17T18:19:38.392Z,25.84
2023-03-17T18:22:38.672Z,25.93
2023-03-17T18:25:27.768Z,25.91
2023-03-17T18:28:17.193Z,25.77
2023-03-17T18:31:10.931Z,25.93
2023-03-17T18:34:07.134Z,25.97
2023-03-17T18:36:59.621Z,25.80
2023-03-17T18:40:06.087Z,25.77
2023-03-17T18:42:57.976Z,26.06
2023-03-17T18:45:48.961Z,26.12
2023-03-17T18:48:37.866Z,26.03
2023-03-17T18:51:26.550Z,26.02
2023-03-17T18:54:18.979Z,25.73
2023-03-17T18:57:08.480Z,26.07
2023-03-17T18:59:58.554Z,26.26
2023-03-17T19:02:48.019Z,26.25
2023-03-17T19:05:38.444Z,26.01
2023-03-17T19:08:28.065Z,26.19
2023-03-17T19:11:20.956Z,26.19
2023-03-17T19:14:11.835Z,26.25
2023-03-17T19:17:00.625Z,26.16
2023-03-17T19:19:50.704Z,26.23
2023-03-17T19:22:42.686Z,26.16
2023-03-17T19:25:31.608Z,26.18
2023-03-17T19:28:22.047Z,26.09
2023-03-17T19:31:10.709Z,26.26
2023-03-17T19:33:59.442Z,26.14
2023-03-17T19:36:48.719Z,26.30
2023-03-17T19:39:37.857Z,26.29
2023-03-17T19:42:27.520Z,26.26
2023-03-17T19:45:18.604Z,26.25
2023-03-17T19:48:07.457Z,26.29
2023-03-17T19:50:57.320Z,26.26
2023-03-17T19:53:46.004Z,26.04
2023-03-17T19:56:34.990Z,26.11
2023-03-17T19:59:23.888Z,26.09
2023-03-17T20:02:21.635Z,26.25
2023-03-17T20:05:11.081Z,26.30
2023-03-17T20:07:59.812Z,26.16
2023-03-17T20:10:53.792Z,26.30
2023-03-17T20:13:42.693Z,26.13
2023-03-17T20:16:33.600Z,26.20
2023-03-17T20:19:23.905Z,26.17
2023-03-17T20:22:12.633Z,26.26
2023-03-17T20:25:01.419Z,26.21
2023-03-17T20:27:52.270Z,26.30
2023-03-17T20:30:43.942Z,26.35
2023-03-17T20:33:33.301Z,26.28
2023-03-17T20:36:23.631Z,26.16
2023-03-17T20:39:17.123Z,26.18
2023-03-17T20:42:10.196Z,26.14
2023-03-17T20:44:59.007Z,26.10
2023-03-17T20:47:48.820Z,26.22
2023-03-17T20:50:37.888Z,25.92
2023-03-17T20:53:29.612Z,26.06
2023-03-17T20:56:20.008Z,26.13
2023-03-17T20:59:11.136Z,26.18
2023-03-17T21:01:59.738Z,26.28
2023-03-17T21:04:49.042Z,26.26
2023-03-17T21:07:37.686Z,26.28
2023-03-17T21:10:27.845Z,26.20
2023-03-17T21:13:18.258Z,26.28
2023-03-17T21:16:07.432Z,26.02
2023-03-17T21:18:56.409Z,26.15
2023-03-17T21:21:45.705Z,25.98
2023-03-17T21:27:46.893Z,26.13
2023-03-17T21:30:36.952Z,26.17
2023-03-17T21:33:28.458Z,26.19
2023-03-17T21:36:17.316Z,26.15
2023-03-17T21:39:07.529Z,26.16
2023-03-17T21:41:56.914Z,26.15
2023-03-17T21:44:48.356Z,26.11
2023-03-17T21:47:37.594Z,26.18
2023-03-17T21:50:27.027Z,26.19
2023-03-17T21:53:16.175Z,26.21
2023-03-17T21:56:05.350Z,26.20
2023-03-17T21:58:54.980Z,26.27
2023-03-17T22:01:52.152Z,26.22
2023-03-17T22:04:41.692Z,26.31
2023-03-17T22:07:30.963Z,26.27
2023-03-17T22:10:19.840Z,26.39
2023-03-17T22:13:08.539Z,26.30
2023-03-17T22:16:06.587Z,26.07
2023-03-17T22:18:57.132Z,26.21
2023-03-17T22:21:45.808Z,26.25
2023-03-17T22:24:34.476Z,26.35
2023-03-17T22:27:23.256Z,26.39
2023-03-17T22:30:14.621Z,26.38
2023-03-17T22:33:03.293Z,26.33
2023-03-17T22:35:53.483Z,26.40
2023-03-17T22:38:42.568Z,26.39
2023-03-17T22:41:32.143Z,26.32
2023-03-17T22:44:21.969Z,26.32
2023-03-17T22:47:11.762Z,26.22
2023-03-17T22:50:00.604Z,26.35
2023-03-17T22:52:50.867Z,26.34
2023-03-17T22:55:39.620Z,26.29
2023-03-17T22:58:28.717Z,26.29
2023-03-17T23:01:19.159Z,26.33
2023-03-17T23:04:09.084Z,26.36
2023-03-17T23:06:59.188Z,26.33
2023-03-17T23:09:49.416Z,26.10
2023-03-17T23:12:39.536Z,25.98
2023-03-17T23:15:28.650Z,26.01
2023-03-17T23:18:17.503Z,25.97
2023-03-17T23:21:07.836Z,25.81
2023-03-17T23:23:56.628Z,25.95
2023-03-17T23:26:46.843Z,25.97
2023-03-17T23:29:35.947Z,25.91
2023-03-17T23:32:24.912Z,25.80
2023-03-17T23:35:15.490Z,25.79
2023-03-17T23:38:05.155Z,25.68
2023-03-17T23:40:57.690Z,25.67
2023-03-17T23:43:49.007Z,25.80
2023-03-17T23:46:37.714Z,25.75
2023-03-17T23:49:27.648Z,25.70
2023-03-17T23:52:16.881Z,25.64
2023-03-17T23:55:06.758Z,25.64
2023-03-17T23:57:55.749Z,25.64
